Time;durP1;ratioP1;P1;durP2;ratioP2;P2;SDS_P1;SDS_P2;PMS_P1;PMS_P2;Temp;Humidity;BMP_temperature;BMP_pressure;BME280_temperature;BME280_humidity;BME280_pressure;Samples;Min_cycle;Max_cycle;Signal;HPM_P1;HPM_P2
2022/11/03 00:01:40;;;;;;;5.67;2.33;;;;;;;2.62;100.00;101416.13;4976254;28;20376;-83
2022/11/03 00:04:10;;;;;;;7.93;3.07;;;;;;;2.61;100.00;101425.66;4979274;28;20133;-83
2022/11/03 00:06:38;;;;;;;11.00;2.73;;;;;;;2.59;100.00;101421.25;4972866;28;20534;-83
2022/11/03 00:09:06;;;;;;;3.77;2.00;;;;;;;2.55;100.00;101417.69;4970180;28;20047;-82
2022/11/03 00:11:38;;;;;;;6.43;2.40;;;;;;;2.50;100.00;101424.50;4974435;28;20045;-83
2022/11/03 00:14:08;;;;;;;5.37;2.10;;;;;;;2.46;100.00;101425.28;4966164;28;20042;-85
2022/11/03 00:16:40;;;;;;;2.80;2.07;;;;;;;2.46;100.00;101422.69;4972282;28;20455;-85
2022/11/03 00:19:08;;;;;;;5.70;2.87;;;;;;;2.46;100.00;101417.47;4975437;28;20038;-83
2022/11/03 00:21:36;;;;;;;3.87;2.40;;;;;;;2.48;100.00;101416.66;4974521;28;20045;-86
2022/11/03 00:24:06;;;;;;;4.07;2.50;;;;;;;2.44;100.00;101412.22;4958801;28;20058;-83
2022/11/03 00:26:37;;;;;;;4.87;2.90;;;;;;;2.47;100.00;101420.09;4950915;28;20149;-87
2022/11/03 00:29:11;;;;;;;6.50;2.87;;;;;;;2.51;100.00;101403.66;4972842;28;20051;-85
2022/11/03 00:31:42;;;;;;;4.20;2.73;;;;;;;2.48;100.00;101407.94;4970505;28;20038;-84
2022/11/03 00:34:09;;;;;;;5.73;2.83;;;;;;;2.49;100.00;101407.97;4958468;28;20669;-84
2022/11/03 00:36:40;;;;;;;7.03;3.10;;;;;;;2.56;100.00;101413.34;4959649;28;20049;-84
2022/11/03 00:39:13;;;;;;;3.33;2.70;;;;;;;2.52;100.00;101405.47;4978519;28;20217;-86
2022/11/03 00:41:47;;;;;;;9.43;3.33;;;;;;;2.44;100.00;101400.91;4975929;28;20133;-84
2022/11/03 00:44:14;;;;;;;9.17;3.13;;;;;;;2.40;100.00;101399.94;4986560;28;20137;-85
2022/11/03 00:46:44;;;;;;;5.63;3.27;;;;;;;2.42;100.00;101400.84;4949798;28;20038;-83
2022/11/03 00:49:10;;;;;;;6.60;3.00;;;;;;;2.42;100.00;101392.16;4956155;28;20050;-85
2022/11/03 00:51:37;;;;;;;4.67;3.20;;;;;;;2.40;100.00;101393.84;4990106;28;20036;-85
2022/11/03 00:54:05;;;;;;;6.37;3.43;;;;;;;2.32;100.00;101398.88;4958611;28;20052;-84
2022/11/03 00:56:40;;;;;;;4.87;3.67;;;;;;;2.31;100.00;101386.66;4960160;28;20068;-85
2022/11/03 00:59:08;;;;;;;5.97;3.17;;;;;;;2.31;100.00;101396.22;4951740;28;20072;-84
2022/11/03 01:01:39;;;;;;;5.50;3.30;;;;;;;2.36;100.00;101395.50;4957712;28;20082;-84
2022/11/03 01:06:59;;;;;;;4.70;3.07;;;;;;;2.32;100.00;101383.22;4974886;28;20384;-84
2022/11/03 01:09:38;;;;;;;4.97;3.13;;;;;;;2.29;100.00;101383.16;4974501;28;20507;-84
2022/11/03 01:12:07;;;;;;;6.73;3.23;;;;;;;2.23;100.00;101386.47;4974252;28;20047;-85
2022/11/03 01:14:50;;;;;;;6.00;3.13;;;;;;;2.13;100.00;101383.63;4971905;28;20043;-84
2022/11/03 01:17:19;;;;;;;5.63;2.80;;;;;;;2.12;100.00;101377.53;4977288;28;20046;-85
2022/11/03 01:19:46;;;;;;;4.67;2.67;;;;;;;2.10;100.00;101384.44;4957568;28;20104;-84
2022/11/03 01:22:14;;;;;;;6.23;3.17;;;;;;;2.25;100.00;101371.75;4955925;28;20046;-84
2022/11/03 01:24:44;;;;;;;4.43;3.20;;;;;;;2.12;100.00;101374.91;4956644;28;20104;-84
2022/11/03 01:27:17;;;;;;;7.87;3.30;;;;;;;2.16;100.00;101373.25;4953927;28;20496;-82
2022/11/03 01:29:44;;;;;;;5.50;3.03;;;;;;;2.11;100.00;101380.97;4974434;28;20049;-84
2022/11/03 01:32:11;;;;;;;5.23;3.50;;;;;;;2.09;100.00;101384.38;4970518;28;20042;-84
2022/11/03 01:34:38;;;;;;;6.53;3.07;;;;;;;2.09;100.00;101372.22;4958028;28;20058;-85
2022/11/03 01:37:05;;;;;;;5.73;3.10;;;;;;;2.09;100.00;101374.81;4954881;28;20039;-83
2022/11/03 01:39:35;;;;;;;3.80;2.77;;;;;;;2.05;100.00;101372.09;4969470;28;20073;-83
2022/11/03 01:42:01;;;;;;;5.80;3.33;;;;;;;2.04;100.00;101381.66;4986152;28;20065;-84
2022/11/03 01:44:33;;;;;;;5.60;3.20;;;;;;;2.05;100.00;101374.72;4984147;28;20058;-83
2022/11/03 01:47:06;;;;;;;5.97;3.23;;;;;;;1.96;100.00;101372.75;4971933;28;20061;-82
2022/11/03 01:49:44;;;;;;;5.43;3.30;;;;;;;2.01;100.00;101372.84;4988529;28;20050;-83
2022/11/03 01:52:25;;;;;;;5.50;3.53;;;;;;;1.87;100.00;101364.72;4972169;28;20042;-83
2022/11/03 01:54:58;;;;;;;6.67;3.67;;;;;;;1.84;100.00;101360.28;4972770;28;20045;-82
2022/11/03 01:57:32;;;;;;;5.73;2.87;;;;;;;1.86;100.00;101350.81;4972178;28;20049;-83
2022/11/03 02:00:00;;;;;;;5.47;3.53;;;;;;;1.83;100.00;101348.09;4983860;28;20476;-84
2022/11/03 02:02:27;;;;;;;6.47;4.27;;;;;;;1.83;100.00;101347.22;4944429;28;20492;-83
2022/11/03 02:04:56;;;;;;;7.17;3.90;;;;;;;1.86;100.00;101347.31;4973593;28;20081;-84
2022/11/03 02:07:33;;;;;;;6.30;3.40;;;;;;;1.83;100.00;101336.78;4970609;28;20042;-83
2022/11/03 02:10:00;;;;;;;6.27;3.73;;;;;;;1.76;100.00;101340.97;4987319;28;20093;-82
2022/11/03 02:12:27;;;;;;;6.47;4.17;;;;;;;1.88;100.00;101346.50;4980360;28;20030;-84
2022/11/03 02:14:57;;;;;;;15.63;4.07;;;;;;;1.86;100.00;101339.50;4961893;28;20038;-83
2022/11/03 02:17:28;;;;;;;4.97;3.50;;;;;;;1.72;100.00;101333.91;4988570;28;20510;-83
2022/11/03 02:20:04;;;;;;;7.43;3.97;;;;;;;1.73;100.00;101332.19;4973304;28;20039;-83
2022/11/03 02:22:59;;;;;;;7.90;4.00;;;;;;;1.75;100.00;101327.91;4973966;28;20066;-83
2022/11/03 02:25:32;;;;;;;8.63;4.20;;;;;;;1.79;100.00;101327.16;4993159;28;20042;-82
2022/11/03 02:27:59;;;;;;;5.57;3.60;;;;;;;1.72;100.00;101318.28;4976134;28;20046;-84
2022/11/03 02:30:27;;;;;;;8.20;4.23;;;;;;;1.76;100.00;101314.91;4974917;28;20510;-84
2022/11/03 02:33:05;;;;;;;6.23;3.90;;;;;;;1.88;100.00;101315.22;4973763;28;20554;-82
2022/11/03 02:36:13;;;;;;;6.50;4.17;;;;;;;1.81;100.00;101315.03;4956353;28;20062;-83
2022/11/03 02:39:10;;;;;;;7.17;3.40;;;;;;;1.74;100.00;101305.28;4970824;28;20174;-83
2022/11/03 02:41:37;;;;;;;6.07;4.07;;;;;;;1.68;100.00;101303.41;4998392;28;20591;-83
2022/11/03 02:44:10;;;;;;;6.50;4.63;;;;;;;1.81;100.00;101295.06;4959585;28;20061;-82
2022/11/03 02:46:37;;;;;;;7.27;4.20;;;;;;;1.75;100.00;101299.25;4976400;28;20046;-83
2022/11/03 02:49:04;;;;;;;7.87;3.87;;;;;;;1.78;100.00;101297.63;4961438;28;20521;-83
2022/11/03 02:51:31;;;;;;;6.30;4.27;;;;;;;1.69;100.00;101302.59;4977765;28;20065;-82
2022/11/03 02:54:19;;;;;;;9.23;4.17;;;;;;;1.69;100.00;101300.00;4977525;28;20081;-84
2022/11/03 02:56:52;;;;;;;6.77;4.20;;;;;;;1.69;100.00;101298.25;4977201;28;20454;-83
2022/11/03 02:59:23;;;;;;;6.47;3.87;;;;;;;1.67;100.00;101289.50;4968874;28;20050;-84
2022/11/03 03:01:57;;;;;;;5.63;4.00;;;;;;;1.67;100.00;101294.72;4959006;28;20384;-83
2022/11/03 03:04:46;;;;;;;7.47;3.57;;;;;;;1.81;100.00;101308.09;4973980;28;20039;-84
2022/11/03 03:07:19;;;;;;;7.47;4.03;;;;;;;1.71;100.00;101300.03;4975601;28;20038;-84
2022/11/03 03:09:53;;;;;;;5.88;3.83;;;;;;;1.78;100.00;101299.34;4955368;28;20038;-82
2022/11/03 03:12:20;;;;;;;;;;;;;;;1.76;100.00;101288.84;4959037;28;20105;-84
2022/11/03 03:14:48;;;;;;;5.57;4.03;;;;;;;1.81;100.00;101294.19;4978079;28;19921;-84
2022/11/03 03:17:18;;;;;;;7.80;5.00;;;;;;;1.80;100.00;101306.34;4960992;28;20073;-83
2022/11/03 03:19:53;;;;;;;8.07;4.50;;;;;;;1.91;100.00;101288.38;4975260;28;20085;-83
2022/11/03 03:22:42;;;;;;;9.57;4.57;;;;;;;2.03;100.00;101293.91;4962409;28;20039;-84
2022/11/03 03:25:19;;;;;;;10.80;4.97;;;;;;;2.04;100.00;101290.44;4955383;28;20526;-83
2022/11/03 03:27:48;;;;;;;11.10;5.13;;;;;;;2.10;100.00;101297.50;4987247;28;20132;-83
2022/11/03 03:30:15;;;;;;;10.33;5.00;;;;;;;2.11;100.00;101299.28;4961361;28;20129;-83
2022/11/03 03:32:47;;;;;;;6.40;4.47;;;;;;;2.16;100.00;101303.75;4950587;28;20106;-83
2022/11/03 03:35:20;;;;;;;9.63;5.10;;;;;;;2.23;100.00;101296.97;4961786;28;20050;-83
2022/11/03 03:37:49;;;;;;;11.33;5.90;;;;;;;2.32;100.00;101306.72;4974225;28;20484;-83
2022/11/03 03:40:22;;;;;;;10.00;4.90;;;;;;;2.34;100.00;101307.63;4982090;28;20049;-82
2022/11/03 03:42:49;;;;;;;9.23;5.67;;;;;;;2.43;100.00;101305.22;4971594;28;20062;-84
2022/11/03 03:45:17;;;;;;;9.53;4.83;;;;;;;2.49;100.00;101308.00;4996905;28;20041;-84
2022/11/03 03:47:44;;;;;;;10.80;5.73;;;;;;;2.56;100.00;101291.63;4985378;28;20388;-84
2022/11/03 03:50:11;;;;;;;9.03;5.30;;;;;;;2.58;100.00;101287.31;4976342;28;20039;-83
2022/11/03 03:52:37;;;;;;;11.90;5.07;;;;;;;2.79;100.00;101295.63;4976519;28;20034;-83
2022/11/03 03:55:06;;;;;;;9.60;5.00;;;;;;;2.80;100.00;101289.56;4982527;28;20069;-83
2022/11/03 03:57:33;;;;;;;11.53;5.10;;;;;;;2.83;100.00;101287.00;4983518;28;20085;-82
2022/11/03 04:00:00;;;;;;;8.53;5.03;;;;;;;2.89;100.00;101295.81;4960406;28;20467;-83
2022/11/03 04:02:26;;;;;;;9.93;5.10;;;;;;;2.93;100.00;101295.03;4972581;28;20451;-83
2022/11/03 04:04:53;;;;;;;10.50;5.27;;;;;;;2.97;100.00;101291.66;4975224;28;20033;-83
2022/11/03 04:10:09;;;;;;;9.13;4.80;;;;;;;3.01;100.00;101285.63;4994842;28;20100;-84
2022/11/03 04:23:37;;;;;;;10.57;5.27;;;;;;;3.22;100.00;101266.91;4979740;28;20108;-83
2022/11/03 04:26:10;;;;;;;9.23;5.50;;;;;;;3.30;100.00;101263.59;4971268;28;20042;-84
2022/11/03 04:28:37;;;;;;;9.27;6.13;;;;;;;3.22;100.00;101261.69;4957322;28;20097;-83
2022/11/03 04:31:05;;;;;;;14.10;5.83;;;;;;;3.30;100.00;101252.25;4975652;28;20037;-85
2022/11/03 04:33:32;;;;;;;12.33;5.47;;;;;;;3.22;100.00;101246.00;4960838;28;20073;-84
2022/11/03 04:35:59;;;;;;;12.97;5.17;;;;;;;3.20;100.00;101232.06;4985502;28;20077;-85
2022/11/03 04:38:26;;;;;;;11.20;5.57;;;;;;;3.27;100.00;101239.13;4976501;28;20031;-83
2022/11/03 04:40:55;;;;;;;14.23;6.87;;;;;;;3.16;100.00;101238.94;4963445;28;20483;-83
2022/11/03 04:43:29;;;;;;;9.90;4.80;;;;;;;3.07;100.00;101241.38;4962420;28;20412;-83
2022/11/03 04:45:56;;;;;;;9.32;4.95;;;;;;;3.06;100.00;101237.00;4978541;28;20049;-83
2022/11/03 04:48:23;;;;;;;6.87;4.97;;;;;;;3.19;100.00;101236.38;4963733;28;20050;-83
2022/11/03 04:50:53;;;;;;;10.93;5.90;;;;;;;3.20;100.00;101225.09;4960021;28;20427;-83
2022/11/03 04:53:21;;;;;;;8.83;5.00;;;;;;;3.16;100.00;101231.09;4973579;28;20047;-84
2022/11/03 04:55:52;;;;;;;10.93;5.87;;;;;;;3.17;100.00;101227.63;4958144;28;20049;-83
2022/11/03 04:58:27;;;;;;;7.67;5.13;;;;;;;3.15;100.00;101224.13;4976666;28;20104;-83
2022/11/03 05:00:58;;;;;;;8.93;5.33;;;;;;;3.12;100.00;101229.31;4959905;28;20126;-83
2022/11/03 05:03:31;;;;;;;8.53;4.87;;;;;;;3.11;100.00;101219.69;4963039;28;20042;-83
2022/11/03 05:05:58;;;;;;;9.00;5.07;;;;;;;3.17;100.00;101219.81;4978213;28;20042;-83
2022/11/03 05:08:24;;;;;;;10.07;5.30;;;;;;;3.13;100.00;101207.56;4962628;28;20384;-83
2022/11/03 05:10:51;;;;;;;10.10;4.53;;;;;;;3.10;100.00;101213.59;4958980;28;20061;-83
2022/11/03 05:13:23;;;;;;;10.97;5.03;;;;;;;3.13;100.00;101202.34;4965067;28;20043;-83
2022/11/03 05:15:51;;;;;;;13.07;5.20;;;;;;;3.09;100.00;101206.59;4961159;28;20042;-83
2022/11/03 05:18:24;;;;;;;8.33;4.70;;;;;;;3.05;100.00;101198.72;4975689;28;20038;-83
2022/11/03 05:21:00;;;;;;;12.73;4.75;;;;;;;3.02;100.00;101190.78;4953923;28;20046;-83
2022/11/03 05:23:29;;;;;;;9.33;5.30;;;;;;;3.07;100.00;101190.03;4974188;28;20046;-82
2022/11/03 05:25:57;;;;;;;10.80;5.13;;;;;;;3.13;100.00;101184.06;4970367;28;20034;-83
2022/11/03 05:28:25;;;;;;;10.57;5.70;;;;;;;3.18;100.00;101174.56;4961849;28;20049;-83
2022/11/03 05:30:53;;;;;;;11.07;5.43;;;;;;;3.14;100.00;101170.16;4958353;28;20042;-83
2022/11/03 05:33:32;;;;;;;8.40;4.97;;;;;;;3.21;100.00;101173.75;4973718;28;20043;-84
2022/11/03 05:36:03;;;;;;;10.37;4.70;;;;;;;3.12;100.00;101171.88;4978298;28;20042;-83
2022/11/03 05:38:31;;;;;;;10.40;5.30;;;;;;;3.10;100.00;101165.72;4962649;28;20463;-84
2022/11/03 05:40:59;;;;;;;7.77;4.47;;;;;;;3.07;100.00;101160.44;4970921;28;20117;-83
2022/11/03 05:43:27;;;;;;;11.17;5.30;;;;;;;3.18;100.00;101166.72;4968769;28;20050;-85
2022/11/03 05:45:57;;;;;;;9.33;4.87;;;;;;;3.16;100.00;101157.13;4955115;28;20053;-83
2022/11/03 05:48:39;;;;;;;9.40;5.37;;;;;;;3.19;100.00;101157.16;4958133;28;20489;-83
2022/11/03 05:51:14;;;;;;;11.60;5.23;;;;;;;3.31;100.00;101157.41;4960905;28;20046;-83
2022/11/03 05:53:42;;;;;;;9.67;4.47;;;;;;;3.23;100.00;101159.00;4970233;28;20320;-83
2022/11/03 05:56:16;;;;;;;9.37;4.97;;;;;;;3.31;100.00;101162.63;4995893;28;20038;-83
2022/11/03 05:58:43;;;;;;;;;;;;;;;3.20;100.00;101158.94;4968114;28;20054;-83
2022/11/03 06:01:12;;;;;;;9.17;4.30;;;;;;;3.14;100.00;101164.94;4967560;28;19922;-83
2022/11/03 06:03:39;;;;;;;8.80;5.30;;;;;;;3.20;100.00;101166.78;4974992;28;20046;-83
2022/11/03 06:06:35;;;;;;;9.30;4.60;;;;;;;3.14;100.00;101171.88;4964028;28;20058;-83
2022/11/03 06:09:08;;;;;;;8.17;5.20;;;;;;;3.14;100.00;101177.09;4958516;28;20435;-84
2022/11/03 06:11:35;;;;;;;9.43;5.23;;;;;;;3.20;100.00;101174.63;4959649;28;20084;-84
2022/11/03 06:14:13;;;;;;;7.67;4.83;;;;;;;3.18;100.00;101179.78;4963705;28;20458;-84
2022/11/03 06:16:47;;;;;;;11.00;5.50;;;;;;;3.21;100.00;101179.88;4952770;28;20071;-84
2022/11/03 06:19:19;;;;;;;10.90;4.97;;;;;;;3.16;100.00;101183.22;4974964;28;20045;-84
2022/11/03 06:21:48;;;;;;;10.27;4.77;;;;;;;3.08;100.00;101188.31;4960743;28;20037;-83
2022/11/03 06:24:17;;;;;;;9.37;4.93;;;;;;;3.19;100.00;101181.53;4958672;28;20062;-83
2022/11/03 06:26:45;;;;;;;11.73;5.40;;;;;;;3.30;100.00;101180.03;4952140;28;20050;-83
2022/11/03 06:29:16;;;;;;;11.17;5.40;;;;;;;3.39;100.00;101185.41;4968371;28;20085;-83
2022/11/03 06:31:46;;;;;;;9.47;4.60;;;;;;;3.33;100.00;101187.03;4961009;28;20093;-85
2022/11/03 06:34:20;;;;;;;13.10;4.70;;;;;;;3.36;100.00;101184.44;4976146;28;20077;-84
2022/11/03 06:36:46;;;;;;;8.07;4.70;;;;;;;3.51;100.00;101176.00;4980723;28;20065;-83
2022/11/03 06:39:19;;;;;;;8.40;4.63;;;;;;;3.52;100.00;101160.34;4968920;28;20047;-84
2022/11/03 06:41:46;;;;;;;7.40;5.30;;;;;;;3.48;100.00;101173.34;4957102;28;20042;-84
2022/11/03 06:44:23;;;;;;;7.80;4.63;;;;;;;3.50;100.00;101176.84;4957659;28;20381;-84
2022/11/03 06:46:52;;;;;;;10.17;5.50;;;;;;;3.59;100.00;101166.56;4967280;28;20043;-84
2022/11/03 06:49:32;;;;;;;11.70;4.80;;;;;;;3.65;100.00;101172.75;4960708;28;20042;-84
2022/11/03 06:52:02;;;;;;;11.30;5.03;;;;;;;3.76;100.00;101170.31;4961946;28;20038;-83
2022/11/03 06:54:28;;;;;;;9.47;4.63;;;;;;;3.97;100.00;101174.13;4965035;28;20667;-84
2022/11/03 06:56:55;;;;;;;11.17;5.50;;;;;;;3.98;100.00;101168.91;4981053;28;20108;-84
2022/11/03 06:59:23;;;;;;;11.03;4.80;;;;;;;3.95;100.00;101174.97;4958433;28;20041;-83
2022/11/03 07:01:53;;;;;;;9.20;5.57;;;;;;;3.91;100.00;101175.78;4981268;28;20121;-85
2022/11/03 07:04:21;;;;;;;8.83;5.17;;;;;;;4.05;100.00;101181.22;5008146;23;20042;-82
2022/11/03 07:06:48;;;;;;;11.17;4.57;;;;;;;4.07;100.00;101174.25;4946202;28;20074;-86
2022/11/03 07:09:21;;;;;;;8.33;4.37;;;;;;;4.12;100.00;101179.53;4931498;29;20131;-83
2022/11/03 07:11:50;;;;;;;8.43;4.67;;;;;;;4.13;100.00;101171.75;4915485;29;20095;-86
2022/11/03 07:14:20;;;;;;;9.63;4.83;;;;;;;4.22;100.00;101168.38;4934140;29;20496;-84
2022/11/03 07:16:50;;;;;;;8.03;4.17;;;;;;;4.26;100.00;101162.31;4931880;29;20064;-85
2022/11/03 07:19:26;;;;;;;9.90;5.13;;;;;;;4.24;100.00;101159.69;4922754;29;20035;-86
2022/11/03 07:21:58;;;;;;;10.70;5.23;;;;;;;4.28;100.00;101160.59;4920415;29;20036;-83
2022/11/03 07:24:32;;;;;;;7.70;4.47;;;;;;;4.32;100.00;101151.94;4919563;29;20043;-85
2022/11/03 07:27:26;;;;;;;11.63;6.10;;;;;;;4.36;100.00;101163.31;4920007;29;20072;-79
2022/11/03 07:30:13;;;;;;;8.80;4.60;;;;;;;4.43;100.00;101152.94;4938811;29;20047;-82
2022/11/03 07:32:41;;;;;;;9.40;4.40;;;;;;;4.42;100.00;101153.81;4928509;29;20055;-81
2022/11/03 07:35:16;;;;;;;8.90;4.90;;;;;;;4.49;100.00;101150.41;4944009;29;20560;-84
2022/11/03 07:37:43;;;;;;;11.20;4.63;;;;;;;4.68;100.00;101148.00;4949148;29;20172;-80
2022/11/03 07:40:17;;;;;;;9.90;4.67;;;;;;;4.71;100.00;101140.19;4921575;29;20099;-81
2022/11/03 07:42:44;;;;;;;8.65;4.53;;;;;;;4.78;100.00;101144.63;4939098;29;20043;-81
2022/11/03 07:45:33;;;;;;;10.50;4.90;;;;;;;4.80;100.00;101150.78;4935534;29;20071;-81
2022/11/03 07:48:09;;;;;;;5.50;3.93;;;;;;;4.91;100.00;101136.03;4945130;29;20054;-80
2022/11/03 07:50:37;;;;;;;7.20;4.20;;;;;;;5.03;100.00;101136.16;4932349;29;20043;-82
2022/11/03 07:53:10;;;;;;;8.50;4.10;;;;;;;5.03;100.00;101130.03;4937691;29;20032;-83
2022/11/03 07:55:37;;;;;;;9.40;5.35;;;;;;;5.05;100.00;101121.34;4929461;29;20059;-83
2022/11/03 07:58:34;;;;;;;10.50;4.77;;;;;;;5.19;100.00;101121.47;4904317;29;20059;-81
2022/11/03 08:01:15;;;;;;;9.80;4.67;;;;;;;5.17;100.00;101125.81;4940629;28;20086;-81
2022/11/03 08:03:45;;;;;;;13.27;4.07;;;;;;;5.32;100.00;101114.59;4937612;29;20059;-81
2022/11/03 08:06:11;;;;;;;7.83;4.20;;;;;;;5.32;100.00;101120.72;4922814;29;20535;-80
2022/11/03 08:08:42;;;;;;;9.10;4.93;;;;;;;5.46;100.00;101115.56;4905013;29;20059;-80
2022/11/03 08:11:09;;;;;;;7.17;3.67;;;;;;;5.46;100.00;101112.06;4936192;29;20103;-80
2022/11/03 08:13:36;;;;;;;9.27;4.30;;;;;;;5.63;100.00;101116.59;4935010;29;20048;-80
2022/11/03 08:16:02;;;;;;;7.57;4.43;;;;;;;5.67;100.00;101109.59;4937193;29;20052;-80
2022/11/03 08:18:29;;;;;;;12.23;4.33;;;;;;;5.77;100.00;101103.56;4925779;29;20047;-81
2022/11/03 08:20:56;;;;;;;6.07;4.00;;;;;;;5.81;100.00;101099.22;4938369;29;20047;-80
2022/11/03 08:23:22;;;;;;;8.70;4.80;;;;;;;5.91;100.00;101094.06;4921595;29;20040;-84
2022/11/03 08:25:51;;;;;;;9.47;4.37;;;;;;;5.95;100.00;101087.06;4932229;29;20434;-84
2022/11/03 08:28:18;;;;;;;4.63;3.27;;;;;;;6.06;100.00;101084.53;4918357;29;20039;-83
2022/11/03 08:30:45;;;;;;;6.83;3.73;;;;;;;6.18;100.00;101074.94;4933429;29;20111;-83
2022/11/03 08:33:11;;;;;;;9.43;4.10;;;;;;;6.21;100.00;101079.31;4932260;29;20040;-86
2022/11/03 08:35:38;;;;;;;10.60;4.00;;;;;;;6.26;100.00;101077.59;4916852;29;20059;-84
2022/11/03 08:38:05;;;;;;;6.93;3.70;;;;;;;6.38;100.00;101058.41;4934229;29;20047;-81
2022/11/03 08:40:32;;;;;;;9.30;3.23;;;;;;;6.46;100.00;101061.91;4935960;29;20568;-83
2022/11/03 08:43:01;;;;;;;10.07;3.40;;;;;;;6.53;100.00;101068.06;4927664;29;20059;-82
2022/11/03 08:45:29;;;;;;;7.83;4.20;;;;;;;6.53;100.00;101061.06;4925254;29;20050;-81
2022/11/03 08:47:56;;;;;;;6.93;3.20;;;;;;;6.61;100.00;101048.84;4956668;29;20127;-81
2022/11/03 08:50:23;;;;;;;6.17;3.00;;;;;;;6.69;100.00;101051.47;4955767;29;20044;-82
2022/11/03 08:52:50;;;;;;;6.87;3.20;;;;;;;6.67;100.00;101048.84;4942570;29;20054;-82
2022/11/03 08:55:16;;;;;;;7.87;2.97;;;;;;;6.86;100.00;101043.63;4964230;29;20047;-81
2022/11/03 08:57:43;;;;;;;7.47;3.20;;;;;;;7.00;100.00;101036.63;4943569;29;20111;-82
2022/11/03 09:00:10;;;;;;;5.60;3.30;;;;;;;7.03;100.00;101032.25;4923712;29;20062;-83
2022/11/03 09:02:37;;;;;;;5.97;3.20;;;;;;;7.14;100.00;101026.97;4935848;29;20051;-80
2022/11/03 09:05:06;;;;;;;6.03;2.80;;;;;;;7.31;100.00;101029.59;4937728;29;20476;-80
2022/11/03 09:07:34;;;;;;;7.60;4.00;;;;;;;7.55;100.00;101023.41;4936843;29;20074;-79
2022/11/03 09:10:21;;;;;;;5.90;2.57;;;;;;;7.65;100.00;101021.63;4934735;29;20510;-81
2022/11/03 09:12:58;;;;;;;10.20;3.63;;;;;;;7.79;100.00;101012.84;4936826;29;20043;-84
2022/11/03 09:15:24;;;;;;;6.57;3.00;;;;;;;7.88;100.00;101010.16;4938176;29;20044;-80
2022/11/03 09:17:51;;;;;;;5.10;3.03;;;;;;;7.96;100.00;101002.25;4935793;29;20047;-80
2022/11/03 09:20:19;;;;;;;8.27;3.03;;;;;;;8.32;100.00;101001.16;4934533;29;20357;-83
2022/11/03 09:22:46;;;;;;;8.40;2.60;;;;;;;8.33;100.00;100996.81;4920441;29;20386;-82
2022/11/03 09:25:13;;;;;;;4.73;2.40;;;;;;;8.30;100.00;100996.81;4905139;29;20047;-80
2022/11/03 09:27:39;;;;;;;4.67;3.10;;;;;;;8.41;100.00;100989.78;4904486;29;20058;-83
2022/11/03 09:30:06;;;;;;;7.00;3.13;;;;;;;8.56;100.00;100987.00;4935129;29;20052;-83
2022/11/03 09:32:39;;;;;;;5.43;2.33;;;;;;;8.73;100.00;100987.75;4933862;29;20047;-86
2022/11/03 09:35:08;;;;;;;5.78;2.80;;;;;;;8.79;100.00;100992.13;4950334;29;20497;-86
2022/11/03 09:37:35;;;;;;;6.93;3.00;;;;;;;8.93;100.00;100984.13;4934620;29;20123;-84
2022/11/03 09:40:03;;;;;;;4.50;2.40;;;;;;;8.99;100.00;100976.13;4918175;29;20048;-81
2022/11/03 09:42:33;;;;;;;12.70;6.53;;;;;;;9.24;100.00;100964.47;4942739;29;20473;-82
2022/11/03 09:45:00;;;;;;;32.67;15.75;;;;;;;9.37;100.00;100962.59;4932900;29;20063;-82
2022/11/03 09:47:35;;;;;;;17.88;13.80;;;;;;;9.63;100.00;100958.78;4914090;29;20054;-82
2022/11/03 09:50:02;;;;;;;4.70;2.75;;;;;;;9.70;100.00;100955.19;4912629;29;20048;-80
2022/11/03 09:52:29;;;;;;;6.68;4.10;;;;;;;9.91;100.00;100954.03;4930818;29;20040;-83
2022/11/03 09:54:58;;;;;;;7.32;2.65;;;;;;;10.09;98.46;100944.13;4928726;29;20036;-82
2022/11/03 09:57:28;;;;;;;6.22;3.00;;;;;;;10.27;100.00;100952.72;4932489;29;20510;-84
2022/11/03 09:59:54;;;;;;;5.68;2.78;;;;;;;10.50;98.38;100945.28;4929176;29;20048;-81
2022/11/03 10:02:27;;;;;;;6.30;2.30;;;;;;;10.58;94.72;100937.25;4914538;29;20048;-84
2022/11/03 10:04:56;;;;;;;5.97;2.47;;;;;;;10.84;95.39;100932.38;4930352;29;20050;-84
2022/11/03 10:07:25;;;;;;;6.35;2.53;;;;;;;10.97;97.56;100927.78;4933109;29;20469;-85
2022/11/03 10:09:53;;;;;;;5.57;2.63;;;;;;;11.23;93.69;100928.16;4932981;29;20406;-85
2022/11/03 10:12:20;;;;;;;4.95;2.13;;;;;;;11.31;90.96;100924.50;4933283;29;20071;-86
2022/11/03 10:14:47;;;;;;;3.38;2.30;;;;;;;11.44;89.35;100918.09;4917618;29;20043;-85
2022/11/03 10:17:21;;;;;;;6.80;2.80;;;;;;;11.59;89.87;100911.59;4932731;29;20071;-83
2022/11/03 10:19:50;;;;;;;5.68;2.55;;;;;;;11.68;86.72;100916.69;4934268;29;20078;-83
2022/11/03 10:22:19;;;;;;;9.57;2.47;;;;;;;11.61;87.22;100905.38;4918014;29;20043;-83
2022/11/03 10:24:45;;;;;;;4.70;2.42;;;;;;;11.67;87.84;100907.00;4912564;29;20094;-83
2022/11/03 10:27:20;;;;;;;6.22;2.75;;;;;;;11.75;87.65;100907.72;4920998;29;20446;-83
2022/11/03 10:30:09;;;;;;;6.55;2.97;;;;;;;11.74;87.46;100895.41;4937071;29;20052;-83
2022/11/03 10:32:36;;;;;;;6.32;2.53;;;;;;;11.78;88.67;100899.75;4936512;29;20040;-83
2022/11/03 10:35:32;;;;;;;4.45;2.30;;;;;;;11.75;86.26;100890.06;4908723;29;20079;-83
2022/11/03 10:38:30;;;;;;;3.58;1.98;;;;;;;11.68;88.10;100880.50;4936530;29;20111;-84
2022/11/03 10:41:11;;;;;;;4.60;2.40;;;;;;;11.62;86.65;100883.31;4950830;29;20485;-83
2022/11/03 10:43:40;;;;;;;6.38;2.50;;;;;;;11.66;85.14;100882.31;4936533;29;20573;-83
2022/11/03 10:46:21;;;;;;;5.70;2.30;;;;;;;11.56;87.92;100879.00;4952553;29;20047;-82
2022/11/03 10:49:14;;;;;;;6.18;2.40;;;;;;;11.48;87.34;100882.72;4922957;29;20039;-82
2022/11/03 10:51:42;;;;;;;6.82;2.45;;;;;;;11.60;87.07;100871.84;4905216;29;20445;-83
2022/11/03 10:54:11;;;;;;;6.35;2.60;;;;;;;11.64;87.66;100873.56;4904447;29;20556;-83
2022/11/03 10:56:38;;;;;;;6.80;2.60;;;;;;;11.61;87.11;100867.47;4936093;29;20067;-83
2022/11/03 10:59:05;;;;;;;8.45;2.58;;;;;;;11.62;88.83;100869.22;4919970;29;20066;-83
2022/11/03 11:01:32;;;;;;;4.28;2.38;;;;;;;11.47;86.77;100871.25;4936034;29;20102;-82
2022/11/03 11:03:59;;;;;;;6.00;2.72;;;;;;;11.61;88.31;100867.47;4936172;29;20413;-83
2022/11/03 11:06:29;;;;;;;6.03;2.30;;;;;;;11.77;85.64;100861.81;4936892;29;20078;-82
2022/11/03 11:09:01;;;;;;;6.15;2.70;;;;;;;11.78;87.77;100850.31;4921995;29;20043;-83
2022/11/03 11:11:28;;;;;;;5.03;2.40;;;;;;;11.81;85.61;100854.69;4921420;29;20462;-84
2022/11/03 11:14:20;;;;;;;6.97;2.55;;;;;;;11.82;86.12;100844.06;4951848;29;20532;-83
2022/11/03 11:16:51;;;;;;;4.95;2.63;;;;;;;11.89;86.78;100836.00;4950856;29;20047;-83
2022/11/03 11:19:21;;;;;;;8.77;2.80;;;;;;;11.84;83.70;100831.66;4951791;28;20131;-83
2022/11/03 11:21:55;;;;;;;3.92;1.92;;;;;;;11.96;83.24;100827.00;4937168;29;20527;-82
2022/11/03 11:24:44;;;;;;;5.82;2.40;;;;;;;12.00;83.46;100815.41;4926823;29;20039;-82
2022/11/03 11:27:30;;;;;;;5.53;2.10;;;;;;;12.05;85.12;100817.06;4922594;29;20044;-83
2022/11/03 11:29:58;;;;;;;6.78;2.60;;;;;;;12.06;84.92;100817.94;4938709;29;20048;-82
2022/11/03 11:32:43;;;;;;;3.92;2.13;;;;;;;12.09;82.53;100807.25;4921499;29;20418;-81
2022/11/03 11:35:14;;;;;;;6.13;2.55;;;;;;;12.12;84.71;100804.53;4935973;29;20046;-81
2022/11/03 11:37:42;;;;;;;5.07;2.30;;;;;;;12.14;81.22;100808.03;4948891;29;20043;-84
2022/11/03 11:40:35;;;;;;;5.47;2.55;;;;;;;12.00;82.15;100808.34;4934997;29;20048;-85
2022/11/03 11:43:01;;;;;;;4.22;2.05;;;;;;;12.04;85.17;100806.50;4931370;29;20043;-83
2022/11/03 11:46:06;;;;;;;6.57;2.25;;;;;;;12.12;83.51;100799.25;4951092;29;20051;-83
2022/11/03 11:48:35;;;;;;;6.35;2.30;;;;;;;12.04;82.66;100795.91;4935756;29;20438;-84
2022/11/03 11:51:02;;;;;;;6.25;2.25;;;;;;;11.96;85.34;100782.00;4901388;29;20044;-84
2022/11/03 11:53:42;;;;;;;4.85;2.00;;;;;;;11.93;86.31;100787.34;4916590;29;20127;-83
2022/11/03 11:56:12;;;;;;;6.50;2.40;;;;;;;11.96;86.45;100779.34;4896948;29;20044;-83
2022/11/03 11:58:40;;;;;;;5.53;2.42;;;;;;;11.90;84.35;100779.47;4937664;29;20560;-85
2022/11/03 12:01:29;;;;;;;4.32;2.30;;;;;;;11.87;85.83;100768.97;4913797;29;20040;-86